Time;durP1;ratioP1;P1;durP2;ratioP2;P2;SDS_P1;SDS_P2;PMS_P1;PMS_P2;Temp;Humidity;BMP_temperature;BMP_pressure;BME280_temperature;BME280_humidity;BME280_pressure;Samples;Min_cycle;Max_cycle;Signal;HPM_P1;HPM_P2
2022/12/19 00:01:07;;;;;;;219.05;117.95;;;25.60;2201.60;;;;;;5087499;28;20052;-58
2022/12/19 00:03:34;;;;;;;226.07;126.00;;;25.60;2201.60;;;;;;5087128;28;20556;-61
2022/12/19 00:06:03;;;;;;;227.55;131.40;;;25.70;2201.60;;;;;;5088696;28;20401;-60
2022/12/19 00:08:32;;;;;;;213.50;117.82;;;25.70;2201.60;;;;;;5088728;28;20172;-59
2022/12/19 00:11:00;;;;;;;197.90;117.32;;;25.70;2201.60;;;;;;5088624;28;20052;-59
2022/12/19 00:13:27;;;;;;;175.68;98.00;;;25.70;2201.60;;;;;;5088472;28;20020;-59
2022/12/19 00:15:53;;;;;;;170.25;95.65;;;25.60;2201.60;;;;;;5088760;28;20028;-59
2022/12/19 00:18:19;;;;;;;173.77;95.20;;;25.60;2201.60;;;;;;5089048;28;20416;-60
2022/12/19 00:20:52;;;;;;;169.40;88.40;;;25.60;2201.60;;;;;;5088217;28;21394;-59
2022/12/19 00:23:18;;;;;;;153.23;87.35;;;25.60;2201.60;;;;;;5086762;28;20024;-59
2022/12/19 00:25:43;;;;;;;152.73;91.18;;;25.70;2201.60;;;;;;5088341;28;20416;-59
2022/12/19 00:28:09;;;;;;;143.75;88.05;;;25.60;2201.60;;;;;;5088468;28;20031;-61
2022/12/19 00:30:35;;;;;;;148.68;86.35;;;25.60;2201.60;;;;;;5089989;28;20029;-59
2022/12/19 00:33:00;;;;;;;154.23;88.32;;;0.90;2201.60;;;;;;5092717;28;20099;-59
2022/12/19 00:35:26;;;;;;;147.68;82.07;;;0.70;2201.60;;;;;;5092224;28;20016;-60
2022/12/19 00:37:52;;;;;;;135.82;78.93;;;0.70;2201.60;;;;;;5092472;28;20031;-58
2022/12/19 00:40:17;;;;;;;135.52;78.78;;;0.80;2201.60;;;;;;5091590;28;20052;-59
2022/12/19 00:42:43;;;;;;;136.52;75.50;;;0.90;2201.60;;;;;;5092111;28;20109;-59
2022/12/19 00:45:09;;;;;;;121.50;69.90;;;0.90;2201.60;;;;;;5092335;28;20028;-58
2022/12/19 00:47:35;;;;;;;154.45;84.22;;;0.70;2201.60;;;;;;5092237;28;20032;-59
2022/12/19 00:50:01;;;;;;;157.75;91.63;;;0.70;2201.60;;;;;;5092330;28;20027;-60
2022/12/19 00:52:26;;;;;;;142.52;78.25;;;0.80;2201.60;;;;;;5092180;28;20020;-58
2022/12/19 00:54:52;;;;;;;139.38;77.63;;;0.70;2201.60;;;;;;5091986;28;20125;-59
2022/12/19 00:57:18;;;;;;;144.95;77.65;;;0.60;2201.60;;;;;;5091789;28;20020;-59
2022/12/19 00:59:43;;;;;;;138.77;74.25;;;0.70;2201.60;;;;;;5091905;28;20453;-59
2022/12/19 01:02:09;;;;;;;112.78;60.55;;;0.60;2201.60;;;;;;5092833;28;20068;-59
2022/12/19 01:04:35;;;;;;;102.72;57.17;;;0.70;2201.60;;;;;;5093582;28;20028;-59
2022/12/19 01:07:00;;;;;;;111.07;59.22;;;0.70;2201.60;;;;;;5093322;28;20031;-58
2022/12/19 01:09:26;;;;;;;111.57;65.50;;;0.60;2201.60;;;;;;5092841;28;20032;-58
2022/12/19 01:14:36;;;;;;;126.95;70.95;;;0.60;2201.60;;;;;;5093114;28;20027;-59
2022/12/19 01:17:02;;;;;;;120.95;68.13;;;0.40;2201.60;;;;;;5093428;28;20028;-59
2022/12/19 01:19:27;;;;;;;133.75;70.63;;;0.40;2201.60;;;;;;5092762;28;20053;-57
2022/12/19 01:21:53;;;;;;;124.93;73.72;;;0.40;2201.60;;;;;;5092887;28;20044;-58
2022/12/19 01:24:19;;;;;;;133.45;74.72;;;0.20;2201.60;;;;;;5092620;28;20453;-58
2022/12/19 01:26:45;;;;;;;135.82;80.43;;;0.20;2201.60;;;;;;5092692;28;20038;-60
2022/12/19 01:29:10;;;;;;;139.23;74.82;;;0.10;2201.60;;;;;;5092901;28;20032;-59
2022/12/19 01:31:36;;;;;;;131.20;72.78;;;0.10;2201.60;;;;;;5092811;28;20178;-59
2022/12/19 01:34:02;;;;;;;114.70;64.60;;;0.20;2201.60;;;;;;5093692;28;20071;-59
2022/12/19 01:36:28;;;;;;;122.22;66.97;;;0.10;2201.60;;;;;;5095777;28;20036;-59
2022/12/19 01:38:57;;;;;;;105.80;58.63;;;12.90;2201.60;;;;;;5096226;28;20505;-60
2022/12/19 01:41:23;;;;;;;102.43;58.78;;;13.10;2201.60;;;;;;5094829;28;20048;-62
2022/12/19 01:44:08;;;;;;;101.97;51.50;;;13.40;2201.60;;;;;;5096405;28;20028;-59
2022/12/19 01:46:44;;;;;;;89.30;51.10;;;13.40;2201.60;;;;;;5094826;28;20070;-59
2022/12/19 01:49:33;;;;;;;89.63;52.30;;;13.40;2201.60;;;;;;5092685;28;20103;-58
2022/12/19 01:52:03;;;;;;;99.43;50.42;;;13.40;2201.60;;;;;;5092636;28;20020;-58
2022/12/19 01:54:33;;;;;;;118.60;60.90;;;13.20;2201.60;;;;;;5092220;28;20016;-59
2022/12/19 01:57:01;;;;;;;99.70;55.83;;;13.00;2201.60;;;;;;5092612;28;20114;-58
2022/12/19 01:59:37;;;;;;;104.00;58.80;;;13.00;2201.60;;;;;;5092200;28;20036;-59
2022/12/19 02:02:10;;;;;;;136.82;67.47;;;12.90;2201.60;;;;;;5092209;28;20485;-58
2022/12/19 02:04:35;;;;;;;113.00;60.90;;;12.90;2201.60;;;;;;5092055;28;20025;-59
2022/12/19 02:07:04;;;;;;;113.85;63.38;;;13.10;2201.60;;;;;;5092179;28;20031;-58
2022/12/19 02:09:29;;;;;;;106.32;57.95;;;13.10;2201.60;;;;;;5091957;28;20423;-59
2022/12/19 02:11:58;;;;;;;99.43;53.83;;;13.00;2201.60;;;;;;5091738;28;20024;-59
2022/12/19 02:14:24;;;;;;;105.70;53.40;;;13.00;2201.60;;;;;;5091892;28;20024;-59
2022/12/19 02:16:57;;;;;;;114.20;64.88;;;13.20;2201.60;;;;;;5091987;28;20458;-58
2022/12/19 02:19:37;;;;;;;131.52;68.47;;;13.20;2201.60;;;;;;5091824;28;20024;-58
2022/12/19 02:22:12;;;;;;;119.43;66.28;;;13.20;2201.60;;;;;;5092184;28;20394;-58
2022/12/19 02:24:41;;;;;;;104.63;62.13;;;13.20;2201.60;;;;;;5091612;28;20103;-59
2022/12/19 02:27:35;;;;;;;101.97;59.45;;;13.20;2201.60;;;;;;5091667;28;20466;-58
2022/12/19 02:30:04;;;;;;;107.78;58.28;;;13.40;2201.60;;;;;;5091771;28;20032;-58
2022/12/19 02:32:55;;;;;;;103.68;57.65;;;38.40;2201.60;;;;;;5091638;28;20545;-58
2022/12/19 02:35:39;;;;;;;113.53;60.42;;;13.70;2201.60;;;;;;5091618;28;20023;-60
2022/12/19 02:38:45;;;;;;;116.25;63.65;;;13.50;2201.60;;;;;;5091542;28;20123;-59
2022/12/19 02:41:27;;;;;;;113.25;62.05;;;13.40;2201.60;;;;;;5009161;28;20046;-59
2022/12/19 02:43:55;;;;;;;100.72;56.15;;;13.40;2201.60;;;;;;5009262;28;20038;-59
2022/12/19 02:46:21;;;;;;;102.82;55.83;;;13.30;2201.60;;;;;;5009452;28;20121;-59
2022/12/19 02:48:48;;;;;;;103.47;53.30;;;13.30;2201.60;;;;;;5009056;28;20034;-59
2022/12/19 02:51:13;;;;;;;91.28;48.72;;;13.30;2201.60;;;;;;5009143;28;20040;-58
2022/12/19 02:53:40;;;;;;;95.82;53.38;;;13.40;2201.60;;;;;;5009069;28;20045;-59
2022/12/19 02:56:25;;;;;;;91.88;50.08;;;13.40;2201.60;;;;;;5009088;28;20074;-59
2022/12/19 02:59:18;;;;;;;97.72;51.50;;;13.60;2201.60;;;;;;5009208;28;20034;-58
2022/12/19 03:01:49;;;;;;;99.70;51.55;;;13.50;2201.60;;;;;;5009080;28;20412;-59
2022/12/19 03:04:18;;;;;;;99.22;55.30;;;13.40;2201.60;;;;;;5008885;28;20041;-59
2022/12/19 03:07:02;;;;;;;102.13;54.25;;;13.30;2201.60;;;;;;5009322;28;20041;-59
2022/12/19 03:09:45;;;;;;;81.00;43.95;;;13.20;2201.60;;;;;;5008671;28;20038;-58
2022/12/19 03:12:20;;;;;;;68.57;36.30;;;13.10;2201.60;;;;;;5049879;28;20378;-59
2022/12/19 03:14:46;;;;;;;83.55;42.58;;;13.10;2201.60;;;;;;5090605;28;20024;-58
2022/12/19 03:17:12;;;;;;;79.82;40.45;;;13.00;2201.60;;;;;;5090853;28;20035;-58
2022/12/19 03:19:39;;;;;;;76.05;42.17;;;13.00;2201.60;;;;;;5090669;28;20024;-59
2022/12/19 03:22:06;;;;;;;87.57;48.35;;;13.10;2201.60;;;;;;5090608;28;20092;-58
2022/12/19 03:24:32;;;;;;;86.10;43.97;;;13.10;2201.60;;;;;;5090558;28;20020;-58
2022/12/19 03:27:03;;;;;;;86.40;47.17;;;13.50;2201.60;;;;;;5090294;28;20034;-58
2022/12/19 03:29:31;;;;;;;88.32;48.97;;;13.70;2201.60;;;;;;5090622;28;20062;-58
2022/12/19 03:32:00;;;;;;;87.57;51.35;;;38.40;2201.60;;;;;;5090576;28;20110;-59
2022/12/19 03:34:51;;;;;;;82.05;43.58;;;38.50;2201.60;;;;;;5090482;28;20020;-58
2022/12/19 03:37:21;;;;;;;84.93;43.58;;;38.50;2201.60;;;;;;5008295;28;20030;-58
2022/12/19 03:39:53;;;;;;;85.45;43.88;;;38.70;2201.60;;;;;;5008085;28;20045;-59
2022/12/19 03:45:06;;;;;;;89.38;49.63;;;38.40;2201.60;;;;;;5008678;28;20041;-59
2022/12/19 03:47:39;;;;;;;104.50;49.78;;;13.70;2201.60;;;;;;5008341;28;20030;-59
2022/12/19 03:50:06;;;;;;;78.40;41.38;;;13.60;2201.60;;;;;;5008242;28;20026;-59
2022/12/19 03:52:45;;;;;;;88.38;46.80;;;13.70;2201.60;;;;;;5008396;28;20610;-58
2022/12/19 03:55:37;;;;;;;86.95;49.03;;;13.70;2201.60;;;;;;5008272;28;20109;-59
2022/12/19 03:58:10;;;;;;;79.70;44.22;;;38.50;2201.60;;;;;;5007651;28;20103;-60
2022/12/19 04:00:40;;;;;;;98.95;47.08;;;38.60;2201.60;;;;;;5007924;28;20042;-59
2022/12/19 04:03:07;;;;;;;85.45;46.92;;;38.60;2201.60;;;;;;5007924;28;20042;-58
2022/12/19 04:05:34;;;;;;;91.55;47.15;;;38.70;2201.60;;;;;;5007637;28;20440;-58
2022/12/19 04:08:06;;;;;;;82.22;44.60;;;38.60;2201.60;;;;;;5008038;28;20084;-59
2022/12/19 04:10:35;;;;;;;75.53;42.58;;;38.50;2201.60;;;;;;5007829;28;20125;-58
2022/12/19 04:13:14;;;;;;;70.10;39.97;;;38.60;2201.60;;;;;;5007902;28;20105;-59
2022/12/19 04:15:50;;;;;;;80.78;40.88;;;38.50;2201.60;;;;;;5090108;28;20067;-59
2022/12/19 04:18:18;;;;;;;74.18;40.60;;;38.60;2201.60;;;;;;5089725;28;20032;-58
2022/12/19 04:20:53;;;;;;;75.88;40.78;;;38.60;2201.60;;;;;;5090104;28;20492;-58
2022/12/19 04:23:29;;;;;;;81.97;39.85;;;38.70;2201.60;;;;;;5089637;28;20115;-58
2022/12/19 04:26:00;;;;;;;77.60;39.63;;;38.80;2201.60;;;;;;5089756;28;20086;-58
2022/12/19 04:28:31;;;;;;;78.68;40.25;;;38.70;2201.60;;;;;;5089754;28;20020;-59
2022/12/19 04:30:58;;;;;;;72.22;37.67;;;38.80;2201.60;;;;;;5089850;28;20103;-59
2022/12/19 04:33:24;;;;;;;63.53;35.80;;;38.70;2201.60;;;;;;5089937;28;20024;-58
2022/12/19 04:35:50;;;;;;;58.85;34.38;;;38.60;2201.60;;;;;;5089924;28;20025;-59
2022/12/19 04:38:15;;;;;;;70.85;36.88;;;38.70;2201.60;;;;;;5089648;28;20035;-59
2022/12/19 04:40:41;;;;;;;61.67;33.42;;;38.60;2201.60;;;;;;5089547;28;20455;-59
2022/12/19 04:43:07;;;;;;;79.93;39.70;;;38.50;2201.60;;;;;;5089809;28;20064;-59
2022/12/19 04:45:33;;;;;;;78.28;40.40;;;38.40;2201.60;;;;;;5088403;28;20035;-58
2022/12/19 04:47:58;;;;;;;104.93;54.47;;;38.40;2201.60;;;;;;5089413;28;20081;-58
2022/12/19 04:50:24;;;;;;;142.63;74.32;;;38.50;2201.60;;;;;;5089675;28;20056;-59
2022/12/19 04:52:50;;;;;;;83.00;43.95;;;38.50;2201.60;;;;;;5089613;28;20111;-58
2022/12/19 04:55:15;;;;;;;67.05;38.20;;;38.40;2201.60;;;;;;5089391;28;20028;-59
2022/12/19 04:57:41;;;;;;;98.43;57.88;;;38.50;2201.60;;;;;;5089743;28;20412;-58
2022/12/19 05:00:07;;;;;;;94.63;50.97;;;38.50;2201.60;;;;;;5089537;28;20377;-59
2022/12/19 05:02:34;;;;;;;130.60;67.55;;;13.60;2201.60;;;;;;5089922;28;20111;-59
2022/12/19 05:05:00;;;;;;;118.75;60.60;;;38.50;2201.60;;;;;;5089780;28;20020;-57
2022/12/19 05:07:25;;;;;;;99.20;51.75;;;38.40;2201.60;;;;;;5089397;28;20535;-58
2022/12/19 05:09:51;;;;;;;85.65;44.95;;;38.50;2201.60;;;;;;5089301;28;20387;-59
2022/12/19 05:12:17;;;;;;;87.88;49.67;;;38.50;2201.60;;;;;;5089541;28;20056;-63
2022/12/19 05:14:42;;;;;;;111.43;57.50;;;38.60;2201.60;;;;;;5089737;28;20480;-59
2022/12/19 05:17:08;;;;;;;121.78;67.88;;;38.60;2201.60;;;;;;5090581;28;20044;-58
2022/12/19 05:19:34;;;;;;;108.15;60.72;;;38.70;2201.60;;;;;;5091679;28;20036;-59
2022/12/19 05:21:59;;;;;;;106.35;52.80;;;38.70;2201.60;;;;;;5093138;28;20036;-59
2022/12/19 05:24:25;;;;;;;138.20;67.22;;;38.80;2201.60;;;;;;5092685;28;20112;-60
2022/12/19 05:26:51;;;;;;;96.47;51.70;;;38.70;2201.60;;;;;;5093297;28;20127;-58
2022/12/19 05:29:16;;;;;;;86.53;41.33;;;38.70;2201.60;;;;;;5092715;28;20402;-59
2022/12/19 05:31:42;;;;;;;79.63;38.78;;;38.70;2201.60;;;;;;5093106;28;20028;-59
2022/12/19 05:34:08;;;;;;;135.43;73.57;;;38.80;2201.60;;;;;;5092967;28;20481;-59
2022/12/19 05:36:34;;;;;;;75.95;39.35;;;38.80;2201.60;;;;;;5092983;28;20470;-59
2022/12/19 05:38:59;;;;;;;60.83;34.80;;;38.80;2201.60;;;;;;5092637;28;20438;-59
2022/12/19 05:41:25;;;;;;;73.35;36.65;;;38.90;2201.60;;;;;;5092059;28;20141;-59
2022/12/19 05:43:53;;;;;;;73.38;38.63;;;38.90;2201.60;;;;;;5092777;28;20137;-58
2022/12/19 05:46:20;;;;;;;72.55;35.85;;;38.80;2201.60;;;;;;5092808;28;20028;-58
2022/12/19 05:48:46;;;;;;;71.32;39.40;;;38.80;2201.60;;;;;;5092449;28;20129;-59
2022/12/19 05:51:12;;;;;;;80.43;41.70;;;38.90;2201.60;;;;;;5092815;28;20392;-59
2022/12/19 05:53:38;;;;;;;96.97;50.47;;;39.00;2201.60;;;;;;5092235;28;20111;-58
2022/12/19 05:56:08;;;;;;;97.95;48.05;;;38.90;2201.60;;;;;;5092544;28;20028;-59
2022/12/19 05:58:34;;;;;;;112.75;58.17;;;38.90;2201.60;;;;;;5092653;28;20031;-58
2022/12/19 06:01:05;;;;;;;103.55;52.25;;;39.00;2201.60;;;;;;5092485;28;20020;-58
2022/12/19 06:03:30;;;;;;;67.35;34.47;;;39.00;2201.60;;;;;;5092524;28;20031;-57
2022/12/19 06:06:01;;;;;;;87.97;49.13;;;39.00;2201.60;;;;;;5091768;28;20085;-59
2022/12/19 06:08:26;;;;;;;64.47;36.13;;;39.00;2201.60;;;;;;5091879;28;20052;-59
2022/12/19 06:10:52;;;;;;;56.47;29.88;;;39.20;2201.60;;;;;;5092234;28;20146;-58
2022/12/19 06:13:18;;;;;;;62.17;33.53;;;64.00;2201.60;;;;;;5090863;28;20032;-59
2022/12/19 06:15:43;;;;;;;60.75;34.17;;;64.10;2201.60;;;;;;5092070;28;20036;-58
2022/12/19 06:18:09;;;;;;;57.45;32.88;;;64.20;2201.60;;;;;;5092305;28;20024;-58
2022/12/19 06:20:35;;;;;;;60.88;34.60;;;64.30;2201.60;;;;;;5091980;28;20107;-59
2022/12/19 06:23:01;;;;;;;64.60;34.70;;;64.40;2201.60;;;;;;5092046;28;20043;-59
2022/12/19 06:25:26;;;;;;;68.72;36.72;;;64.60;2201.60;;;;;;5091648;28;20028;-58
2022/12/19 06:27:52;;;;;;;60.08;34.72;;;64.60;2201.60;;;;;;5091490;28;20036;-59
2022/12/19 06:30:18;;;;;;;61.30;34.70;;;64.60;2201.60;;;;;;5091416;28;20024;-59
2022/12/19 06:32:43;;;;;;;58.53;30.55;;;64.50;2201.60;;;;;;5091686;28;20115;-59
2022/12/19 06:35:09;;;;;;;55.30;30.65;;;64.40;2201.60;;;;;;5092076;28;20046;-58
2022/12/19 06:37:35;;;;;;;56.55;30.60;;;64.40;2201.60;;;;;;5091659;28;20032;-59
2022/12/19 06:40:00;;;;;;;56.78;29.10;;;64.50;2201.60;;;;;;5091404;28;20055;-58
2022/12/19 06:42:26;;;;;;;53.83;29.05;;;64.50;2201.60;;;;;;5091302;28;20040;-59
2022/12/19 06:44:53;;;;;;;58.13;31.60;;;64.50;2201.60;;;;;;5091456;28;20024;-59
2022/12/19 06:47:21;;;;;;;60.10;33.38;;;64.30;2201.60;;;;;;5091395;28;20530;-59
2022/12/19 06:49:47;;;;;;;61.00;32.42;;;64.20;2201.60;;;;;;5091084;28;20032;-59
2022/12/19 06:52:14;;;;;;;54.10;29.50;;;64.20;2201.60;;;;;;5091390;28;20028;-59
2022/12/19 06:54:40;;;;;;;67.95;33.10;;;64.20;2201.60;;;;;;5091297;28;20032;-59
2022/12/19 06:57:06;;;;;;;69.13;36.10;;;64.10;2201.60;;;;;;5091170;28;20462;-59
2022/12/19 06:59:32;;;;;;;64.38;30.73;;;64.10;2201.60;;;;;;5091478;28;20031;-60
2022/12/19 07:02:20;;;;;;;56.72;31.17;;;64.00;2201.60;;;;;;5091165;28;20044;-59
2022/12/19 07:05:02;;;;;;;52.08;31.02;;;39.20;2201.60;;;;;;5090974;28;20362;-59
2022/12/19 07:07:29;;;;;;;55.47;32.50;;;38.90;2201.60;;;;;;5091033;28;20032;-59
2022/12/19 07:09:54;;;;;;;62.83;34.60;;;39.20;2201.60;;;;;;5090685;28;20032;-59
2022/12/19 07:12:20;;;;;;;63.85;35.00;;;39.10;2201.60;;;;;;5091027;28;20081;-59
2022/12/19 07:14:45;;;;;;;64.68;34.15;;;38.80;2201.60;;;;;;5090868;28;20365;-59
2022/12/19 07:17:12;;;;;;;101.35;62.67;;;38.80;2201.60;;;;;;5090951;28;20119;-59
2022/12/19 07:19:38;;;;;;;66.47;38.95;;;38.60;2201.60;;;;;;5090868;28;20020;-58
2022/12/19 07:22:04;;;;;;;79.32;42.38;;;38.50;2201.60;;;;;;5090748;28;20038;-59
2022/12/19 07:24:31;;;;;;;77.22;41.00;;;13.70;2201.60;;;;;;5091086;28;20035;-59
2022/12/19 07:26:57;;;;;;;71.50;42.45;;;13.50;2201.60;;;;;;5090827;28;20020;-59
2022/12/19 07:29:23;;;;;;;119.53;66.43;;;13.50;2201.60;;;;;;5090800;28;20032;-63
2022/12/19 07:31:48;;;;;;;118.63;71.82;;;13.20;2201.60;;;;;;5090567;28;20031;-59
2022/12/19 07:34:14;;;;;;;160.70;90.47;;;13.10;2201.60;;;;;;5090610;28;20111;-59
2022/12/19 07:36:40;;;;;;;106.28;66.70;;;13.20;2201.60;;;;;;5090542;28;20038;-59
2022/12/19 07:39:05;;;;;;;128.63;74.28;;;13.20;2201.60;;;;;;5089879;28;20038;-59
2022/12/19 07:41:31;;;;;;;180.90;106.70;;;13.10;2201.60;;;;;;5089786;28;20131;-60
2022/12/19 07:43:57;;;;;;;202.63;122.80;;;13.00;2201.60;;;;;;5090270;28;20020;-60
2022/12/19 07:46:23;;;;;;;272.25;161.38;;;12.90;2201.60;;;;;;5089037;28;20089;-59
2022/12/19 07:48:49;;;;;;;212.80;124.90;;;12.90;2201.60;;;;;;5090170;28;20012;-60
2022/12/19 07:51:15;;;;;;;289.08;169.07;;;0.00;2201.60;;;;;;5090386;28;20028;-60
2022/12/19 07:53:40;;;;;;;304.60;180.30;;;12.90;2201.60;;;;;;5090348;28;20023;-60
2022/12/19 07:56:06;;;;;;;295.98;175.27;;;13.10;2201.60;;;;;;5090255;28;20544;-60
2022/12/19 07:58:32;;;;;;;298.17;182.15;;;13.10;2201.60;;;;;;5090586;28;20039;-60
2022/12/19 08:01:01;;;;;;;282.90;170.25;;;13.00;2201.60;;;;;;5090094;28;20497;-60
2022/12/19 08:03:27;;;;;;;237.98;145.18;;;12.90;2201.60;;;;;;5090175;28;20047;-59
2022/12/19 08:05:59;;;;;;;279.45;173.23;;;0.00;2201.60;;;;;;5090330;28;20466;-59
2022/12/19 08:08:24;;;;;;;236.38;141.77;;;0.00;2201.60;;;;;;5089867;28;20024;-60
2022/12/19 08:10:50;;;;;;;247.80;147.20;;;0.10;2201.60;;;;;;5090059;28;20134;-60
2022/12/19 08:13:16;;;;;;;188.25;110.47;;;0.20;2201.60;;;;;;5089775;28;20119;-60
2022/12/19 08:15:41;;;;;;;192.55;108.70;;;0.40;2201.60;;;;;;5090317;28;20060;-60
2022/12/19 08:18:07;;;;;;;195.63;118.38;;;0.60;2201.60;;;;;;5090066;28;20486;-60
2022/12/19 08:20:33;;;;;;;199.70;122.20;;;0.70;2201.60;;;;;;5090318;28;20024;-59
2022/12/19 08:22:59;;;;;;;191.90;123.22;;;0.90;2201.60;;;;;;5089808;28;20040;-59
2022/12/19 08:25:24;;;;;;;189.75;111.88;;;26.20;2201.60;;;;;;5089833;28;20470;-59
2022/12/19 08:27:50;;;;;;;166.38;92.03;;;51.20;2227.20;;;;;;5090171;28;20111;-60
2022/12/19 08:30:16;;;;;;;193.38;115.82;;;51.30;2227.20;;;;;;5089909;28;20466;-58
2022/12/19 08:32:43;;;;;;;174.30;105.80;;;51.30;2227.20;;;;;;5089937;28;20078;-60
2022/12/19 08:35:09;;;;;;;156.27;103.35;;;51.30;2227.20;;;;;;5089731;28;20032;-59
2022/12/19 08:37:35;;;;;;;175.98;103.80;;;51.50;2227.20;;;;;;5089924;28;20074;-61
2022/12/19 08:40:02;;;;;;;168.13;96.60;;;51.80;2227.20;;;;;;5089739;28;20383;-62
2022/12/19 08:42:28;;;;;;;155.20;97.30;;;77.40;2227.20;;;;;;5089542;28;20479;-59
2022/12/19 08:44:54;;;;;;;177.57;114.28;;;103.20;2227.20;;;;;;5090110;28;20092;-61
2022/12/19 08:47:19;;;;;;;138.05;90.88;;;128.90;2252.80;;;;;;5090083;28;20028;-60
2022/12/19 08:49:45;;;;;;;175.00;115.78;;;154.20;2252.80;;;;;;5089653;28;20035;-62
2022/12/19 08:52:10;;;;;;;171.23;112.43;;;179.30;2252.80;;;;;;5092788;28;20462;-61
2022/12/19 08:54:36;;;;;;;191.15;127.25;;;180.10;2252.80;;;;;;5093570;28;20056;-61
2022/12/19 08:57:02;;;;;;;171.20;120.47;;;205.30;2150.40;;;;;;5093534;28;20031;-61
2022/12/19 08:59:28;;;;;;;157.25;109.10;;;230.50;2099.20;;;;;;5093517;28;20032;-63
2022/12/19 09:01:53;;;;;;;162.10;118.63;;;230.40;2073.60;;;;;;5093569;28;20741;-61
2022/12/19 09:04:20;;;;;;;145.82;111.45;;;231.10;1996.80;;;;;;5093555;28;20469;-64
2022/12/19 09:06:46;;;;;;;222.63;182.90;;;230.50;2048.00;;;;;;5093337;28;20061;-61
2022/12/19 09:09:11;;;;;;;196.55;138.57;;;230.60;2022.40;;;;;;5092676;28;20028;-66
2022/12/19 09:11:37;;;;;;;138.05;105.13;;;256.50;1945.60;;;;;;5092734;28;20018;-61
2022/12/19 09:14:03;;;;;;;167.73;131.25;;;256.00;1920.00;;;;;;5092763;28;20039;-63
2022/12/19 09:16:29;;;;;;;172.35;133.20;;;256.80;1868.80;;;;;;5092829;28;20020;-57
2022/12/19 09:18:57;;;;;;;183.13;132.55;;;230.40;1996.80;;;;;;5092746;28;20024;-60
2022/12/19 09:21:25;;;;;;;164.88;113.32;;;205.60;2048.00;;;;;;5093186;28;20027;-62
2022/12/19 09:23:53;;;;;;;165.07;120.03;;;205.20;2048.00;;;;;;5093183;28;20039;-59
2022/12/19 09:26:21;;;;;;;182.25;124.38;;;154.40;2252.80;;;;;;5092439;28;20016;-62
2022/12/19 09:28:47;;;;;;;179.98;122.90;;;153.60;2252.80;;;;;;5092939;28;20028;-58
2022/12/19 09:31:17;;;;;;;137.43;86.38;;;128.30;2252.80;;;;;;5093112;28;20094;-57
2022/12/19 09:33:43;;;;;;;158.77;94.75;;;128.70;2252.80;;;;;;5092963;28;20390;-60
2022/12/19 09:36:14;;;;;;;161.38;103.85;;;128.00;2252.80;;;;;;5092829;28;20024;-65
2022/12/19 09:38:41;;;;;;;172.10;110.57;;;102.80;2227.20;;;;;;5092847;28;20036;-62
2022/12/19 09:41:09;;;;;;;180.82;113.30;;;102.60;2227.20;;;;;;5092570;28;20044;-59
2022/12/19 09:44:03;;;;;;;138.18;90.30;;;102.60;2227.20;;;;;;5092651;28;20043;-61
2022/12/19 09:46:46;;;;;;;119.47;74.18;;;102.40;2227.20;;;;;;5092395;28;20024;-58
2022/12/19 09:49:15;;;;;;;124.43;74.50;;;102.40;2227.20;;;;;;5092091;28;20035;-58
2022/12/19 09:51:55;;;;;;;126.70;82.30;;;77.60;2227.20;;;;;;5092314;28;20018;-61
2022/12/19 09:54:40;;;;;;;152.05;89.03;;;77.70;2227.20;;;;;;5092409;28;20027;-60
2022/12/19 09:57:16;;;;;;;133.68;88.57;;;102.50;2227.20;;;;;;5089409;28;20025;-60
2022/12/19 09:59:47;;;;;;;144.32;87.18;;;77.70;2227.20;;;;;;5091887;28;20544;-63
2022/12/19 10:02:41;;;;;;;150.80;97.80;;;102.80;2227.20;;;;;;5091339;28;20036;-61
2022/12/19 10:05:29;;;;;;;143.30;88.53;;;102.60;2227.20;;;;;;5089482;28;20412;-56
2022/12/19 10:07:55;;;;;;;184.38;110.78;;;102.90;2227.20;;;;;;5071631;28;20464;-60
2022/12/19 10:10:39;;;;;;;138.93;86.88;;;102.90;2227.20;;;;;;5071740;28;20059;-57
2022/12/19 10:13:16;;;;;;;167.70;100.95;;;103.10;2227.20;;;;;;5071658;28;20413;-56
2022/12/19 10:16:25;;;;;;;152.73;98.57;;;102.90;2227.20;;;;;;5071796;28;20459;-66
2022/12/19 10:18:59;;;;;;;152.02;98.57;;;102.90;2227.20;;;;;;5069731;28;20032;-64
2022/12/19 10:21:31;;;;;;;;;;;103.10;2227.20;;;;;;5070359;28;20107;-60
2022/12/19 10:24:32;;;;;;;170.98;106.00;;;103.00;2227.20;;;;;;5070037;28;19951;-60
2022/12/19 10:27:00;;;;;;;162.23;96.57;;;103.20;2227.20;;;;;;5069763;28;20060;-60
2022/12/19 10:29:38;;;;;;;152.18;95.55;;;128.40;2252.80;;;;;;5069797;28;20479;-62
2022/12/19 10:32:22;;;;;;;113.80;77.55;;;103.10;2227.20;;;;;;5069745;28;20028;-58
2022/12/19 10:34:52;;;;;;;117.47;70.68;;;103.20;2227.20;;;;;;5069828;28;20493;-64
2022/12/19 10:37:26;;;;;;;117.82;69.75;;;103.30;2227.20;;;;;;5069853;28;20387;-67
2022/12/19 10:40:12;;;;;;;110.85;72.55;;;103.30;2227.20;;;;;;5069991;28;20531;-60
2022/12/19 10:43:03;;;;;;;129.32;82.90;;;128.00;2252.80;;;;;;5069977;28;20109;-59
2022/12/19 10:45:40;;;;;;;138.75;87.32;;;103.10;2227.20;;;;;;5069485;28;20086;-64
2022/12/19 10:48:14;;;;;;;108.68;67.55;;;103.00;2227.20;;;;;;5069916;28;20035;-60
2022/12/19 10:50:39;;;;;;;;;;;103.10;2227.20;;;;;;5070307;28;20020;-59
2022/12/19 10:53:07;;;;;;;124.93;75.63;;;128.10;2252.80;;;;;;5069380;28;19911;-62
2022/12/19 10:55:50;;;;;;;113.93;73.32;;;128.20;2252.80;;;;;;5069461;28;20074;-59
2022/12/19 10:58:19;;;;;;;129.50;79.38;;;128.40;2252.80;;;;;;5068720;28;20024;-62
2022/12/19 11:01:06;;;;;;;143.65;91.25;;;128.30;2252.80;;;;;;5069172;28;20025;-60
2022/12/19 11:03:33;;;;;;;136.05;84.78;;;128.60;2252.80;;;;;;5061819;28;20037;-65
2022/12/19 11:05:59;;;;;;;155.07;97.30;;;128.80;2252.80;;;;;;5069179;28;20029;-58
2022/12/19 11:08:35;;;;;;;148.60;92.75;;;153.60;2252.80;;;;;;5068862;28;20417;-64
2022/12/19 11:11:04;;;;;;;158.48;106.53;;;153.80;2252.80;;;;;;5068575;28;20039;-63
2022/12/19 11:13:33;;;;;;;132.10;81.63;;;154.10;2252.80;;;;;;5069336;28;20024;-58
2022/12/19 11:16:00;;;;;;;174.55;105.07;;;154.30;2252.80;;;;;;5069040;28;20085;-58
2022/12/19 11:18:39;;;;;;;103.28;67.30;;;154.40;2252.80;;;;;;5068727;28;20024;-66
2022/12/19 11:21:28;;;;;;;102.25;63.83;;;154.10;2252.80;;;;;;5068779;28;20107;-60
2022/12/19 11:24:15;;;;;;;92.47;58.70;;;153.80;2252.80;;;;;;5068578;28;20035;-63
2022/12/19 11:26:43;;;;;;;106.13;65.18;;;153.60;2252.80;;;;;;5068794;28;20024;-66
2022/12/19 11:29:45;;;;;;;114.85;72.75;;;153.70;2252.80;;;;;;5068734;28;20028;-59
2022/12/19 11:32:42;;;;;;;111.20;70.28;;;153.90;2252.80;;;;;;5070221;28;20032;-62
2022/12/19 11:35:23;;;;;;;104.38;68.32;;;154.10;2252.80;;;;;;5031003;28;20080;-58
2022/12/19 11:37:57;;;;;;;93.60;60.30;;;154.30;2252.80;;;;;;5030430;28;20116;-60
2022/12/19 11:40:34;;;;;;;81.93;50.80;;;154.40;2252.80;;;;;;5031022;28;20076;-58
2022/12/19 11:43:12;;;;;;;96.85;64.63;;;154.50;2252.80;;;;;;5031849;28;20045;-68
2022/12/19 11:45:59;;;;;;;93.50;55.08;;;154.50;2252.80;;;;;;5028980;28;20046;-69
2022/12/19 11:48:43;;;;;;;95.25;65.60;;;154.40;2252.80;;;;;;5027115;28;20112;-59
2022/12/19 11:51:16;;;;;;;100.40;62.45;;;154.50;2252.80;;;;;;5026301;28;20432;-62
2022/12/19 11:54:03;;;;;;;104.97;65.13;;;154.40;2252.80;;;;;;5027161;28;20030;-65
2022/12/19 11:56:29;;;;;;;115.05;75.22;;;154.30;2252.80;;;;;;5026358;28;20025;-59
2022/12/19 11:59:17;;;;;;;96.47;56.45;;;154.50;2252.80;;;;;;5026067;28;20035;-58
2022/12/19 12:02:14;;;;;;;107.45;68.40;;;154.30;2252.80;;;;;;5016755;28;20025;-57
2022/12/19 12:05:01;;;;;;;117.05;73.72;;;154.10;2252.80;;;;;;5025456;28;20487;-58
2022/12/19 12:07:36;;;;;;;83.35;51.03;;;154.10;2252.80;;;;;;5025758;28;20026;-57
2022/12/19 12:10:16;;;;;;;78.53;51.67;;;153.90;2252.80;;;;;;5025670;28;20029;-59
2022/12/19 12:13:13;;;;;;;84.90;50.90;;;154.30;2252.80;;;;;;5067737;28;20055;-56
2022/12/19 12:15:54;;;;;;;87.00;57.13;;;154.10;2252.80;;;;;;5067890;28;20029;-57
2022/12/19 12:18:54;;;;;;;89.30;54.30;;;154.20;2252.80;;;;;;5067910;28;20028;-58
2022/12/19 12:21:23;;;;;;;81.82;51.80;;;154.40;2252.80;;;;;;5067846;28;20039;-67
2022/12/19 12:24:16;;;;;;;69.18;44.30;;;154.40;2252.80;;;;;;5067913;28;20108;-59